createdAt,value
2019-02-22T00:01:34.597Z,99.20
2019-02-22T00:04:39.363Z,99.30
2019-02-22T00:07:43.790Z,99.20
2019-02-22T00:10:48.228Z,99.50
2019-02-22T00:13:52.652Z,99.60
2019-02-22T00:16:57.096Z,99.80
2019-02-22T00:20:01.611Z,99.90
2019-02-22T00:23:06.044Z,99.90
2019-02-22T00:26:11.219Z,99.90
2019-02-22T00:29:16.086Z,99.90
2019-02-22T00:32:20.827Z,99.90
2019-02-22T00:35:25.324Z,99.90
2019-02-22T00:38:29.754Z,99.90
2019-02-22T00:41:34.840Z,99.90
2019-02-22T00:44:39.531Z,99.90
2019-02-22T00:47:44.262Z,99.90
2019-02-22T00:50:48.699Z,99.90
2019-02-22T00:53:53.142Z,99.90
2019-02-22T00:56:57.584Z,99.90
2019-02-22T01:00:02.030Z,99.90
2019-02-22T01:03:06.799Z,99.80
2019-02-22T01:06:11.243Z,99.80
2019-02-22T01:09:15.948Z,99.70
2019-02-22T01:12:20.418Z,99.80
2019-02-22T01:15:25.254Z,99.80
2019-02-22T01:18:30.043Z,99.80
2019-02-22T01:21:34.490Z,99.80
2019-02-22T01:24:39.196Z,99.70
2019-02-22T01:27:43.928Z,99.60
2019-02-22T01:30:48.375Z,99.50
2019-02-22T01:33:54.246Z,99.50
2019-02-22T01:36:59.031Z,99.60
2019-02-22T01:40:03.755Z,99.70
2019-02-22T01:43:08.510Z,99.60
2019-02-22T01:46:12.960Z,99.50
2019-02-22T01:49:17.649Z,99.50
2019-02-22T01:52:22.382Z,99.50
2019-02-22T01:55:27.119Z,99.50
2019-02-22T01:58:31.567Z,99.60
2019-02-22T02:01:36.277Z,99.70
2019-02-22T02:04:41.008Z,99.80
2019-02-22T02:07:45.760Z,99.90
2019-02-22T02:10:54.227Z,99.90
2019-02-22T02:13:56.628Z,99.90
2019-02-22T02:17:01.077Z,99.90
2019-02-22T02:20:07.764Z,99.90
2019-02-22T02:23:12.460Z,99.90
2019-02-22T02:26:16.910Z,99.90
2019-02-22T02:29:21.478Z,99.90
2019-02-22T02:32:25.956Z,99.90
2019-02-22T02:35:30.671Z,99.90
2019-02-22T02:38:35.391Z,99.90
2019-02-22T02:41:39.844Z,99.90
2019-02-22T02:44:44.281Z,99.90
2019-02-22T02:47:49.122Z,99.90
2019-02-22T02:50:53.518Z,99.90
2019-02-22T02:53:58.250Z,99.90
2019-02-22T02:57:02.993Z,99.90
2019-02-22T03:00:09.479Z,99.90
2019-02-22T03:03:13.931Z,99.90
2019-02-22T03:06:20.331Z,99.90
2019-02-22T03:09:24.780Z,99.90
2019-02-22T03:12:29.231Z,99.90
2019-02-22T03:15:34.012Z,99.90
2019-02-22T03:18:38.469Z,99.90
2019-02-22T03:21:43.163Z,99.90
2019-02-22T03:24:47.610Z,99.90
2019-02-22T03:27:52.059Z,99.90
2019-02-22T03:30:56.858Z,99.90
2019-02-22T03:34:01.314Z,99.90
2019-02-22T03:37:05.997Z,99.90
2019-02-22T03:40:10.832Z,99.90
2019-02-22T03:43:15.286Z,99.90
2019-02-22T03:46:19.730Z,99.90
2019-02-22T03:49:24.508Z,99.90
2019-02-22T03:52:31.655Z,99.90
2019-02-22T03:55:36.428Z,99.90
2019-02-22T03:58:41.168Z,99.90
2019-02-22T04:01:45.891Z,99.90
2019-02-22T04:04:50.634Z,99.90
2019-02-22T04:07:55.360Z,99.90
2019-02-22T04:10:59.808Z,99.90
2019-02-22T04:14:04.253Z,99.90
2019-02-22T04:17:11.404Z,99.90
2019-02-22T04:20:15.200Z,99.90
2019-02-22T04:23:19.656Z,99.90
2019-02-22T04:26:24.094Z,99.90
2019-02-22T04:29:28.550Z,99.90
2019-02-22T04:32:32.992Z,99.90
2019-02-22T04:35:37.827Z,99.90
2019-02-22T04:38:42.670Z,99.90
2019-02-22T04:41:57.709Z,99.90
2019-02-22T04:44:53.288Z,99.90
2019-02-22T04:47:58.086Z,99.90
2019-02-22T04:51:02.530Z,99.90
2019-02-22T04:54:06.976Z,99.90
2019-02-22T04:57:11.415Z,99.90
2019-02-22T05:00:17.832Z,99.90
2019-02-22T05:03:22.658Z,99.90
2019-02-22T05:06:27.102Z,99.90
2019-02-22T05:09:31.551Z,99.90
2019-02-22T05:12:35.988Z,99.90
2019-02-22T05:15:40.440Z,99.90
2019-02-22T05:18:44.885Z,99.90
2019-02-22T05:21:49.322Z,99.90
2019-02-22T05:24:54.136Z,99.90
2019-02-22T05:27:58.574Z,99.90
2019-02-22T05:31:05.130Z,99.90
2019-02-22T05:34:09.633Z,99.90
2019-02-22T05:37:14.397Z,99.90
2019-02-22T05:40:18.837Z,99.90
2019-02-22T05:43:23.280Z,99.90
2019-02-22T05:46:28.214Z,99.90
2019-02-22T05:49:32.718Z,99.90
2019-02-22T05:52:37.429Z,99.90
2019-02-22T05:55:44.298Z,99.90
2019-02-22T05:58:48.633Z,99.90
2019-02-22T06:01:53.160Z,99.90
2019-02-22T06:04:57.991Z,99.90
2019-02-22T06:08:02.426Z,99.90
2019-02-22T06:11:07.158Z,99.90
2019-02-22T06:14:11.875Z,99.90
2019-02-22T06:17:16.734Z,99.90
2019-02-22T06:20:21.215Z,99.90
2019-02-22T06:23:25.659Z,99.90
2019-02-22T06:26:30.569Z,99.90
2019-02-22T06:29:35.111Z,99.90
2019-02-22T06:32:42.167Z,99.90
2019-02-22T06:35:46.004Z,99.90
2019-02-22T06:38:50.739Z,99.90
2019-02-22T06:41:55.476Z,99.90
2019-02-22T06:44:59.924Z,99.90
2019-02-22T06:48:05.346Z,99.90
2019-02-22T06:51:10.086Z,99.90
2019-02-22T06:54:14.804Z,99.90
2019-02-22T06:57:19.568Z,99.90
2019-02-22T07:00:24.265Z,99.90
2019-02-22T07:03:28.999Z,99.90
2019-02-22T07:06:33.734Z,99.90
2019-02-22T07:09:38.491Z,99.90
2019-02-22T07:12:44.565Z,99.90
2019-02-22T07:15:49.005Z,99.90
2019-02-22T07:18:53.445Z,99.90
2019-02-22T07:21:58.188Z,99.90
2019-02-22T07:25:02.604Z,99.90
2019-02-22T07:28:07.383Z,99.90
2019-02-22T07:31:11.810Z,99.90
2019-02-22T07:34:16.248Z,99.90
2019-02-22T07:37:20.696Z,99.90
2019-02-22T07:40:25.463Z,99.90
2019-02-22T07:43:29.939Z,99.90
2019-02-22T07:46:34.720Z,99.90
2019-02-22T07:49:39.455Z,99.90
2019-02-22T07:52:45.281Z,99.90
2019-02-22T07:55:49.936Z,99.90
2019-02-22T07:58:54.675Z,99.90
2019-02-22T08:01:59.401Z,99.90
2019-02-22T08:05:04.135Z,99.90
2019-02-22T08:08:08.599Z,99.90
2019-02-22T08:11:13.319Z,99.90
2019-02-22T08:14:18.067Z,99.90
2019-02-22T08:17:22.690Z,99.90
2019-02-22T08:20:27.097Z,99.90
2019-02-22T08:23:31.571Z,99.90
2019-02-22T08:26:36.002Z,99.90
2019-02-22T08:29:40.442Z,99.90
2019-02-22T08:32:44.896Z,99.90
2019-02-22T08:35:49.604Z,99.90
2019-02-22T08:38:54.314Z,99.90
2019-02-22T08:41:59.063Z,99.90
2019-02-22T08:45:04.100Z,99.90
2019-02-22T08:48:08.553Z,99.90
2019-02-22T08:51:13.000Z,99.90
2019-02-22T08:54:17.446Z,99.90
2019-02-22T08:57:32.778Z,99.90
2019-02-22T09:00:37.527Z,99.90
2019-02-22T09:03:50.618Z,99.90
2019-02-22T09:06:48.774Z,99.90
2019-02-22T09:09:53.721Z,99.90
2019-02-22T09:12:58.455Z,99.90
2019-02-22T09:16:02.895Z,99.90
2019-02-22T09:19:07.357Z,99.90
2019-02-22T09:22:22.503Z,99.90
2019-02-22T09:25:18.287Z,99.90
2019-02-22T09:28:22.751Z,99.90
2019-02-22T09:31:27.276Z,99.90
2019-02-22T09:34:31.727Z,99.90
2019-02-22T09:37:36.489Z,99.90
2019-02-22T09:40:40.940Z,99.90
2019-02-22T09:43:54.648Z,99.90
2019-02-22T09:46:52.222Z,99.90
2019-02-22T09:49:56.951Z,99.90
2019-02-22T09:53:01.681Z,99.90
2019-02-22T09:56:06.410Z,99.90
2019-02-22T09:59:11.139Z,99.90
2019-02-22T10:02:15.870Z,99.90
2019-02-22T10:05:20.603Z,99.90
2019-02-22T10:08:25.062Z,99.90
2019-02-22T10:11:29.514Z,99.90
2019-02-22T10:14:33.970Z,99.90
2019-02-22T10:17:38.703Z,99.80
2019-02-22T10:20:43.433Z,99.20
2019-02-22T10:23:47.888Z,99.20
2019-02-22T10:26:52.590Z,99.30
2019-02-22T10:29:57.042Z,99.10
2019-02-22T10:33:01.493Z,98.10
2019-02-22T10:36:06.018Z,97.60
2019-02-22T10:39:10.476Z,97.40
2019-02-22T10:42:14.919Z,96.70
2019-02-22T10:45:19.656Z,96.40
2019-02-22T10:48:24.110Z,96.30
2019-02-22T10:51:28.800Z,96.60
2019-02-22T10:54:33.252Z,96.60
2019-02-22T10:57:37.694Z,96.50
2019-02-22T11:00:42.478Z,96.50
2019-02-22T11:03:46.938Z,94.90
2019-02-22T11:06:51.372Z,94.30
2019-02-22T11:09:56.166Z,94.50
2019-02-22T11:13:00.615Z,94.90
2019-02-22T11:16:05.311Z,94.20
2019-02-22T11:19:09.757Z,94.10
2019-02-22T11:22:14.224Z,93.90
2019-02-22T11:25:18.669Z,93.30
2019-02-22T11:28:23.416Z,93.10
2019-02-22T11:31:27.863Z,90.70
2019-02-22T11:34:32.304Z,90.80
2019-02-22T11:37:36.992Z,90.40
2019-02-22T11:40:41.447Z,91.30
2019-02-22T11:43:46.151Z,91.80
2019-02-22T11:46:50.587Z,92.20
2019-02-22T11:49:55.037Z,92.50
2019-02-22T11:52:59.485Z,92.50
2019-02-22T11:56:04.252Z,92.90
2019-02-22T11:59:08.983Z,93.60
2019-02-22T12:02:13.719Z,94.30
2019-02-22T12:05:18.166Z,93.90
2019-02-22T12:08:22.620Z,93.50
2019-02-22T12:11:27.069Z,93.60
2019-02-22T12:14:31.509Z,93.80
2019-02-22T12:17:36.239Z,92.90
2019-02-22T12:20:40.729Z,92.20
2019-02-22T12:23:45.163Z,91.90
2019-02-22T12:26:49.918Z,91.60
2019-02-22T12:29:54.649Z,91.90
2019-02-22T12:32:59.381Z,92.30
2019-02-22T12:36:03.905Z,91.80
2019-02-22T12:39:09.353Z,91.40
2019-02-22T12:42:13.788Z,91.60
2019-02-22T12:45:18.235Z,91.70
2019-02-22T12:48:22.910Z,92.00
2019-02-22T12:51:27.423Z,91.90
2019-02-22T12:54:32.235Z,92.20
2019-02-22T12:57:36.823Z,92.10
2019-02-22T13:00:41.552Z,92.10
2019-02-22T13:03:46.280Z,92.00
2019-02-22T13:06:54.289Z,92.20
2019-02-22T13:09:59.132Z,92.00
2019-02-22T13:13:03.653Z,91.90
2019-02-22T13:16:08.085Z,92.30
2019-02-22T13:19:12.520Z,92.00
2019-02-22T13:22:17.223Z,91.50
2019-02-22T13:25:21.710Z,91.50
2019-02-22T13:28:26.135Z,91.50
2019-02-22T13:31:30.904Z,91.80
2019-02-22T13:34:35.631Z,91.60
2019-02-22T13:37:40.152Z,92.00
2019-02-22T13:40:44.594Z,91.80
2019-02-22T13:43:49.317Z,91.90
2019-02-22T13:46:53.754Z,91.30
2019-02-22T13:49:58.197Z,91.60
2019-02-22T13:53:02.894Z,91.50
2019-02-22T13:56:07.332Z,91.20
2019-02-22T13:59:11.770Z,91.00
2019-02-22T14:02:16.232Z,90.60
2019-02-22T14:05:20.997Z,91.10
2019-02-22T14:08:25.729Z,90.30
2019-02-22T14:11:30.173Z,90.70
2019-02-22T14:14:34.607Z,90.60
2019-02-22T14:17:39.055Z,90.60
2019-02-22T14:20:43.503Z,90.50
2019-02-22T14:23:48.255Z,90.10
2019-02-22T14:26:53.865Z,90.20
2019-02-22T14:29:58.537Z,88.70
2019-02-22T14:33:02.997Z,86.70
2019-02-22T14:36:07.442Z,86.90
2019-02-22T14:39:12.344Z,83.40
2019-02-22T14:42:17.752Z,82.40
2019-02-22T14:45:22.163Z,81.80
2019-02-22T14:48:26.833Z,82.60
2019-02-22T14:51:31.364Z,84.00
2019-02-22T14:54:36.070Z,85.40
2019-02-22T14:57:40.710Z,86.40
2019-02-22T15:00:45.121Z,86.20
2019-02-22T15:03:49.586Z,87.60
2019-02-22T15:06:54.017Z,87.20
2019-02-22T15:09:59.054Z,86.60
2019-02-22T15:13:03.644Z,86.30
2019-02-22T15:16:21.920Z,86.60
2019-02-22T15:19:26.364Z,86.90
2019-02-22T15:22:31.180Z,87.80
2019-02-22T15:25:35.589Z,88.20
2019-02-22T15:28:40.033Z,89.20
2019-02-22T15:31:44.484Z,90.20
2019-02-22T15:34:49.252Z,89.10
2019-02-22T15:37:53.978Z,88.50
2019-02-22T15:40:58.712Z,88.70
2019-02-22T15:44:05.628Z,90.00
2019-02-22T15:47:12.026Z,90.50
2019-02-22T15:50:17.205Z,90.70
2019-02-22T15:53:21.939Z,90.20
2019-02-22T15:56:26.443Z,90.40
2019-02-22T15:59:31.208Z,89.70
2019-02-22T16:02:36.042Z,88.90
2019-02-22T16:05:45.170Z,90.10
2019-02-22T16:08:49.622Z,89.80
2019-02-22T16:11:54.065Z,88.40
2019-02-22T16:14:58.841Z,89.80
2019-02-22T16:18:03.573Z,89.30
2019-02-22T16:21:08.008Z,89.60
2019-02-22T16:24:12.725Z,89.80
2019-02-22T16:27:17.458Z,90.10
2019-02-22T16:30:23.821Z,90.40
2019-02-22T16:33:28.554Z,90.50
2019-02-22T16:36:32.997Z,90.70
2019-02-22T16:39:37.443Z,91.10
2019-02-22T16:42:42.136Z,91.30
2019-02-22T16:45:46.573Z,91.60
2019-02-22T16:48:51.018Z,91.90
2019-02-22T16:51:55.455Z,92.00
2019-02-22T16:55:00.286Z,92.30
2019-02-22T16:58:05.009Z,92.60
2019-02-22T17:01:09.443Z,93.00
2019-02-22T17:04:13.898Z,93.20
2019-02-22T17:07:18.346Z,93.60
2019-02-22T17:10:23.077Z,93.60
2019-02-22T17:13:27.812Z,93.80
2019-02-22T17:16:32.255Z,94.20
2019-02-22T17:19:36.716Z,94.20
2019-02-22T17:22:41.218Z,94.50
2019-02-22T17:25:45.911Z,94.70
2019-02-22T17:28:50.354Z,94.90
2019-02-22T17:31:54.788Z,95.10
2019-02-22T17:34:59.226Z,95.40
2019-02-22T17:38:03.694Z,95.30
2019-02-22T17:41:08.532Z,95.50
2019-02-22T17:44:13.002Z,95.60
2019-02-22T17:47:17.445Z,95.60
2019-02-22T17:50:22.138Z,95.90
2019-02-22T17:53:26.566Z,96.20
2019-02-22T17:56:31.274Z,96.40
2019-02-22T17:59:36.106Z,96.40
2019-02-22T18:02:40.544Z,96.70
2019-02-22T18:05:44.968Z,96.80
2019-02-22T18:08:49.796Z,96.80
2019-02-22T18:11:54.509Z,96.80
2019-02-22T18:14:59.196Z,97.10
2019-02-22T18:18:03.880Z,97.00
2019-02-22T18:21:08.303Z,96.80
2019-02-22T18:24:12.746Z,96.60
2019-02-22T18:27:17.446Z,96.30
2019-02-22T18:30:25.971Z,96.00
2019-02-22T18:33:30.707Z,96.10
2019-02-22T18:36:35.448Z,96.10
2019-02-22T18:39:39.892Z,95.90
2019-02-22T18:42:44.585Z,96.20
2019-02-22T18:45:49.313Z,96.10
2019-02-22T18:48:53.751Z,96.30
2019-02-22T18:51:58.183Z,96.60
2019-02-22T18:55:02.892Z,96.70
2019-02-22T18:58:07.331Z,96.60
2019-02-22T19:01:11.761Z,96.50
2019-02-22T19:04:16.221Z,96.50
2019-02-22T19:07:20.995Z,96.40
2019-02-22T19:10:25.436Z,96.30
2019-02-22T19:13:29.874Z,96.50
2019-02-22T19:16:34.304Z,95.80
2019-02-22T19:19:38.737Z,96.30
2019-02-22T19:22:43.248Z,96.60
2019-02-22T19:25:48.079Z,96.60
2019-02-22T19:28:52.779Z,96.60
2019-02-22T19:31:57.202Z,97.20
2019-02-22T19:35:01.940Z,97.80
2019-02-22T19:38:06.472Z,98.20
2019-02-22T19:41:11.185Z,98.30
2019-02-22T19:44:15.625Z,98.20
2019-02-22T19:47:20.073Z,98.00
2019-02-22T19:50:24.505Z,97.80
2019-02-22T19:53:28.949Z,97.90
2019-02-22T19:56:33.716Z,97.70
2019-02-22T19:59:38.155Z,97.90
2019-02-22T20:02:42.592Z,97.80
2019-02-22T20:05:47.131Z,97.80
2019-02-22T20:08:51.553Z,98.50
2019-02-22T20:11:55.997Z,98.00
2019-02-22T20:15:00.770Z,97.80
2019-02-22T20:18:06.912Z,97.60
2019-02-22T20:21:11.763Z,97.80
2019-02-22T20:24:16.203Z,97.60
2019-02-22T20:27:20.637Z,97.80
2019-02-22T20:30:25.347Z,98.10
2019-02-22T20:33:29.793Z,98.00
2019-02-22T20:36:35.455Z,97.50
2019-02-22T20:39:39.887Z,97.90
2019-02-22T20:42:44.315Z,98.20
2019-02-22T20:45:49.301Z,98.30
2019-02-22T20:49:00.753Z,98.10
2019-02-22T20:52:00.301Z,98.20
2019-02-22T20:55:06.287Z,98.50
2019-02-22T20:58:10.791Z,98.30
2019-02-22T21:01:15.243Z,98.60
2019-02-22T21:04:19.688Z,98.80
2019-02-22T21:07:24.116Z,98.60
2019-02-22T21:10:28.903Z,98.90
2019-02-22T21:13:33.333Z,99.90
2019-02-22T21:16:37.784Z,99.70
2019-02-22T21:19:42.573Z,99.60
2019-02-22T21:22:47.302Z,99.10
2019-02-22T21:25:52.044Z,99.00
2019-02-22T21:28:56.763Z,98.60
2019-02-22T21:32:01.196Z,98.80
2019-02-22T21:35:07.448Z,99.20
2019-02-22T21:38:12.184Z,99.90
2019-02-22T21:41:16.935Z,99.90
2019-02-22T21:44:21.423Z,99.90
2019-02-22T21:47:26.071Z,99.90
2019-02-22T21:50:30.514Z,99.90
2019-02-22T21:53:35.224Z,99.90
2019-02-22T21:56:39.673Z,99.80
2019-02-22T21:59:44.482Z,99.70
2019-02-22T22:02:48.918Z,99.50
2019-02-22T22:05:53.648Z,99.80
2019-02-22T22:08:58.075Z,99.90
2019-02-22T22:12:02.792Z,99.90
2019-02-22T22:15:13.104Z,99.90
2019-02-22T22:18:17.884Z,99.90
2019-02-22T22:21:22.610Z,99.90
2019-02-22T22:24:27.342Z,99.90
2019-02-22T22:27:31.777Z,99.90
2019-02-22T22:30:36.496Z,99.90
2019-02-22T22:33:40.936Z,99.90
2019-02-22T22:36:45.387Z,99.90
2019-02-22T22:39:49.828Z,99.90
2019-02-22T22:42:54.272Z,99.90
2019-02-22T22:45:59.850Z,99.90
2019-02-22T22:49:04.275Z,99.90
2019-02-22T22:52:08.720Z,99.90
2019-02-22T22:55:13.164Z,99.90
2019-02-22T22:58:17.849Z,99.90
2019-02-22T23:01:22.465Z,99.90
2019-02-22T23:04:26.913Z,99.90
2019-02-22T23:07:31.345Z,99.90
2019-02-22T23:10:35.783Z,99.90
2019-02-22T23:13:40.481Z,99.90
2019-02-22T23:16:44.922Z,99.90
2019-02-22T23:19:49.632Z,99.90
2019-02-22T23:22:54.060Z,99.90
2019-02-22T23:25:58.788Z,99.90
2019-02-22T23:29:03.221Z,99.90
2019-02-22T23:32:07.661Z,99.90
2019-02-22T23:35:12.369Z,99.90
2019-02-22T23:38:17.091Z,99.90
2019-02-22T23:41:21.827Z,99.90
2019-02-22T23:44:26.268Z,99.90
2019-02-22T23:47:30.988Z,99.90
2019-02-22T23:50:35.430Z,99.90
2019-02-22T23:53:40.140Z,99.90
2019-02-22T23:56:44.863Z,99.90
2019-02-22T23:59:49.599Z,99.90
